createdAt,value
2023-05-17T00:01:47.541Z,58.90
2023-05-17T00:04:14.565Z,58.90
2023-05-17T00:06:41.543Z,59.20
2023-05-17T00:09:09.099Z,59.30
2023-05-17T00:11:37.145Z,59.30
2023-05-17T00:14:04.330Z,59.00
2023-05-17T00:16:31.404Z,59.20
2023-05-17T00:18:58.609Z,59.20
2023-05-17T00:21:25.930Z,59.20
2023-05-17T00:23:53.095Z,59.40
2023-05-17T00:26:20.316Z,59.60
2023-05-17T00:28:47.611Z,59.60
2023-05-17T00:31:15.017Z,59.40
2023-05-17T00:33:41.998Z,59.40
2023-05-17T00:36:09.217Z,59.40
2023-05-17T00:38:36.199Z,59.80
2023-05-17T00:41:03.327Z,60.00
2023-05-17T00:43:30.793Z,59.80
2023-05-17T00:45:58.250Z,60.00
2023-05-17T00:48:26.248Z,60.10
2023-05-17T00:50:53.940Z,59.50
2023-05-17T00:53:21.726Z,59.50
2023-05-17T00:55:49.379Z,59.80
2023-05-17T00:58:17.022Z,59.80
2023-05-17T01:00:44.772Z,60.10
2023-05-17T01:03:12.580Z,59.90
2023-05-17T01:05:39.560Z,60.00
2023-05-17T01:08:06.589Z,60.20
2023-05-17T01:10:51.808Z,59.70
2023-05-17T01:13:33.616Z,60.20
2023-05-17T01:16:30.649Z,60.30
2023-05-17T01:19:00.647Z,59.90
2023-05-17T01:21:46.077Z,60.40
2023-05-17T01:24:44.322Z,60.60
2023-05-17T01:27:14.587Z,60.30
2023-05-17T01:29:44.778Z,61.10
2023-05-17T01:32:13.104Z,60.80
2023-05-17T01:34:41.978Z,61.20
2023-05-17T01:37:08.928Z,60.90
2023-05-17T01:39:36.500Z,61.10
2023-05-17T01:42:14.481Z,60.30
2023-05-17T01:44:50.613Z,61.20
2023-05-17T01:47:28.046Z,60.90
2023-05-17T01:49:55.654Z,61.10
2023-05-17T01:52:35.438Z,61.40
2023-05-17T01:55:15.129Z,61.20
2023-05-17T01:57:44.890Z,61.10
2023-05-17T02:00:14.270Z,61.40
2023-05-17T02:02:46.543Z,61.40
2023-05-17T02:05:13.796Z,61.50
2023-05-17T02:07:40.835Z,61.60
2023-05-17T02:10:08.468Z,61.80
2023-05-17T02:12:36.805Z,62.20
2023-05-17T02:15:04.105Z,62.30
2023-05-17T02:17:31.266Z,62.40
2023-05-17T02:19:58.379Z,62.50
2023-05-17T02:22:25.321Z,62.40
2023-05-17T02:24:52.405Z,62.40
2023-05-17T02:27:19.488Z,62.10
2023-05-17T02:29:46.445Z,62.10
2023-05-17T02:32:13.472Z,62.00
2023-05-17T02:34:40.481Z,62.40
2023-05-17T02:37:07.457Z,62.70
2023-05-17T02:39:34.471Z,62.30
2023-05-17T02:42:01.410Z,62.20
2023-05-17T02:44:28.396Z,62.40
2023-05-17T02:46:55.371Z,62.70
2023-05-17T02:49:22.376Z,62.50
2023-05-17T02:51:49.985Z,62.50
2023-05-17T02:54:17.470Z,62.50
2023-05-17T02:56:44.502Z,62.70
2023-05-17T02:59:11.740Z,63.20
2023-05-17T03:01:42.159Z,63.40
2023-05-17T03:04:09.477Z,63.00
2023-05-17T03:06:38.137Z,63.20
2023-05-17T03:09:05.485Z,63.40
2023-05-17T03:11:33.213Z,63.20
2023-05-17T03:14:02.195Z,63.40
2023-05-17T03:16:31.034Z,63.10
2023-05-17T03:18:59.168Z,63.20
2023-05-17T03:21:26.272Z,62.90
2023-05-17T03:23:53.310Z,63.40
2023-05-17T03:26:20.597Z,63.00
2023-05-17T03:28:51.645Z,62.00
2023-05-17T03:31:19.474Z,63.20
2023-05-17T03:33:46.974Z,63.50
2023-05-17T03:36:15.820Z,63.80
2023-05-17T03:38:43.231Z,63.90
2023-05-17T03:41:10.974Z,64.10
2023-05-17T03:43:38.502Z,64.00
2023-05-17T03:46:06.588Z,63.90
2023-05-17T03:48:36.022Z,63.50
2023-05-17T03:51:04.492Z,63.70
2023-05-17T03:53:31.492Z,63.30
2023-05-17T03:55:58.551Z,63.70
2023-05-17T03:58:25.577Z,63.90
2023-05-17T04:00:52.621Z,63.80
2023-05-17T04:03:20.968Z,64.10
2023-05-17T04:05:48.432Z,64.20
2023-05-17T04:08:15.408Z,63.90
2023-05-17T04:10:42.626Z,63.20
2023-05-17T04:13:09.933Z,63.90
2023-05-17T04:15:38.338Z,64.40
2023-05-17T04:18:07.289Z,64.00
2023-05-17T04:20:34.403Z,63.70
2023-05-17T04:23:01.981Z,63.50
2023-05-17T04:25:31.880Z,63.50
2023-05-17T04:27:58.878Z,63.40
2023-05-17T04:30:25.913Z,63.20
2023-05-17T04:32:52.952Z,62.70
2023-05-17T04:35:20.062Z,62.90
2023-05-17T04:37:50.676Z,62.40
2023-05-17T04:40:21.424Z,61.70
2023-05-17T04:42:49.394Z,61.90
2023-05-17T04:45:17.717Z,62.60
2023-05-17T04:47:45.053Z,62.10
2023-05-17T04:50:12.726Z,62.00
2023-05-17T04:52:40.127Z,62.40
2023-05-17T04:55:08.499Z,62.60
2023-05-17T04:57:36.609Z,62.70
2023-05-17T05:00:07.040Z,61.90
2023-05-17T05:02:34.892Z,62.60
2023-05-17T05:05:05.036Z,62.90
2023-05-17T05:07:33.120Z,63.30
2023-05-17T05:10:01.208Z,63.60
2023-05-17T05:12:28.789Z,63.40
2023-05-17T05:14:56.410Z,63.40
2023-05-17T05:17:24.566Z,63.50
2023-05-17T05:19:52.258Z,60.20
2023-05-17T05:22:19.771Z,63.00
2023-05-17T05:24:47.417Z,65.10
2023-05-17T05:27:14.741Z,66.30
2023-05-17T05:29:42.740Z,66.70
2023-05-17T05:32:11.020Z,66.70
2023-05-17T05:34:43.528Z,67.30
2023-05-17T05:37:10.567Z,67.40
2023-05-17T05:39:37.595Z,67.60
2023-05-17T05:42:05.067Z,67.70
2023-05-17T05:44:32.398Z,68.20
2023-05-17T05:47:00.554Z,68.70
2023-05-17T05:49:27.496Z,69.00
2023-05-17T05:51:55.056Z,69.30
2023-05-17T05:54:22.802Z,67.90
2023-05-17T05:56:51.555Z,67.90
2023-05-17T05:59:20.819Z,68.10
2023-05-17T06:01:47.943Z,68.40
2023-05-17T06:04:15.023Z,68.80
2023-05-17T06:06:42.090Z,68.10
2023-05-17T06:09:12.282Z,67.90
2023-05-17T06:11:39.856Z,68.60
2023-05-17T06:14:07.005Z,68.00
2023-05-17T06:16:34.676Z,67.50
2023-05-17T06:19:01.872Z,68.10
2023-05-17T06:21:28.960Z,68.40
2023-05-17T06:23:55.979Z,68.90
2023-05-17T06:26:23.088Z,68.70
2023-05-17T06:28:50.076Z,68.80
2023-05-17T06:31:18.579Z,69.10
2023-05-17T06:33:46.991Z,68.60
2023-05-17T06:36:14.232Z,68.60
2023-05-17T06:38:41.211Z,68.80
2023-05-17T06:41:08.173Z,68.80
2023-05-17T06:43:35.744Z,68.00
2023-05-17T06:46:04.626Z,67.30
2023-05-17T06:48:31.862Z,66.90
2023-05-17T06:50:59.036Z,67.50
2023-05-17T06:53:27.417Z,67.20
2023-05-17T06:55:54.471Z,67.30
2023-05-17T06:58:21.561Z,67.10
2023-05-17T07:00:48.687Z,66.80
2023-05-17T07:03:16.250Z,67.10
2023-05-17T07:05:43.304Z,66.00
2023-05-17T07:08:10.280Z,65.90
2023-05-17T07:10:37.331Z,65.70
2023-05-17T07:13:06.376Z,66.30
2023-05-17T07:15:33.582Z,66.10
2023-05-17T07:18:00.889Z,66.00
2023-05-17T07:20:28.037Z,65.60
2023-05-17T07:22:55.186Z,64.70
2023-05-17T07:25:22.183Z,64.80
2023-05-17T07:27:49.161Z,65.00
2023-05-17T07:30:16.165Z,64.00
2023-05-17T07:32:43.371Z,63.80
2023-05-17T07:35:10.544Z,64.00
2023-05-17T07:37:37.481Z,63.10
2023-05-17T07:40:05.763Z,62.70
2023-05-17T07:42:33.723Z,62.20
2023-05-17T07:45:00.818Z,62.30
2023-05-17T07:47:28.058Z,61.60
2023-05-17T07:49:55.406Z,61.90
2023-05-17T07:52:22.433Z,61.60
2023-05-17T07:54:49.411Z,61.60
2023-05-17T07:57:16.434Z,60.40
2023-05-17T07:59:43.431Z,60.30
2023-05-17T08:02:10.500Z,59.80
2023-05-17T08:04:37.713Z,60.10
2023-05-17T08:07:05.529Z,60.30
2023-05-17T08:09:32.556Z,59.00
2023-05-17T08:11:59.748Z,58.40
2023-05-17T08:14:27.220Z,57.70
2023-05-17T08:16:54.250Z,57.90
2023-05-17T08:19:21.356Z,56.00
2023-05-17T08:21:49.328Z,55.50
2023-05-17T08:24:17.697Z,55.40
2023-05-17T08:26:44.695Z,55.00
2023-05-17T08:29:11.978Z,54.90
2023-05-17T08:31:39.164Z,55.40
2023-05-17T08:34:06.476Z,55.50
2023-05-17T08:36:33.586Z,56.60
2023-05-17T08:39:00.765Z,55.70
2023-05-17T08:41:31.244Z,55.70
2023-05-17T08:43:59.150Z,56.10
2023-05-17T08:46:26.834Z,56.40
2023-05-17T08:48:59.942Z,56.30
2023-05-17T08:51:27.729Z,56.10
2023-05-17T08:53:55.526Z,54.30
2023-05-17T08:56:25.894Z,54.40
2023-05-17T08:58:57.917Z,55.40
2023-05-17T09:01:26.899Z,54.60
2023-05-17T09:03:55.133Z,54.70
2023-05-17T09:06:23.568Z,54.80
2023-05-17T09:08:54.779Z,54.40
2023-05-17T09:11:40.725Z,54.40
2023-05-17T09:14:07.932Z,53.80
2023-05-17T09:16:36.602Z,53.80
2023-05-17T09:19:06.010Z,53.60
2023-05-17T09:21:34.181Z,53.30
2023-05-17T09:27:03.755Z,52.70
2023-05-17T09:29:35.247Z,52.10
2023-05-17T09:32:20.939Z,52.10
2023-05-17T09:34:50.028Z,52.30
2023-05-17T09:37:18.694Z,52.50
2023-05-17T09:39:47.364Z,51.90
2023-05-17T09:42:16.709Z,52.30
2023-05-17T09:44:57.512Z,51.10
2023-05-17T09:47:29.368Z,51.20
2023-05-17T09:50:02.791Z,50.80
2023-05-17T09:52:32.653Z,50.90
2023-05-17T09:55:00.791Z,50.10
2023-05-17T09:57:29.400Z,49.90
2023-05-17T09:59:57.597Z,49.00
2023-05-17T10:02:31.066Z,49.00
2023-05-17T10:04:58.850Z,48.60
2023-05-17T10:07:27.057Z,48.20
2023-05-17T10:09:56.089Z,47.00
2023-05-17T10:12:25.732Z,47.50
2023-05-17T10:14:55.934Z,47.10
2023-05-17T10:17:23.876Z,46.20
2023-05-17T10:19:51.444Z,48.10
2023-05-17T10:22:23.691Z,47.00
2023-05-17T10:24:51.989Z,46.00
2023-05-17T10:27:20.482Z,45.80
2023-05-17T10:29:50.607Z,46.70
2023-05-17T10:32:21.588Z,46.20
2023-05-17T10:35:01.468Z,45.50
2023-05-17T10:37:37.063Z,45.90
2023-05-17T10:40:04.562Z,46.40
2023-05-17T10:42:32.009Z,46.10
2023-05-17T10:45:01.421Z,45.50
2023-05-17T10:47:34.834Z,45.60
2023-05-17T10:50:03.389Z,45.10
2023-05-17T10:52:31.122Z,45.90
2023-05-17T10:55:00.347Z,45.30
2023-05-17T10:57:50.026Z,46.30
2023-05-17T11:00:21.867Z,44.80
2023-05-17T11:02:50.751Z,44.20
2023-05-17T11:05:25.605Z,44.40
2023-05-17T11:07:52.855Z,44.10
2023-05-17T11:10:19.923Z,44.20
2023-05-17T11:12:54.160Z,44.70
2023-05-17T11:15:28.390Z,45.40
2023-05-17T11:17:58.285Z,44.30
2023-05-17T11:20:25.369Z,45.50
2023-05-17T11:23:15.944Z,43.70
2023-05-17T11:25:42.983Z,43.70
2023-05-17T11:28:18.666Z,44.20
2023-05-17T11:30:52.001Z,43.40
2023-05-17T11:33:32.986Z,45.40
2023-05-17T11:36:06.938Z,44.60
2023-05-17T11:38:34.768Z,43.70
2023-05-17T11:43:52.011Z,42.90
2023-05-17T11:46:21.411Z,44.60
2023-05-17T11:48:51.284Z,43.60
2023-05-17T11:51:21.340Z,42.90
2023-05-17T11:53:50.971Z,42.80
2023-05-17T11:56:24.040Z,43.40
2023-05-17T11:58:54.685Z,43.40
2023-05-17T12:01:21.741Z,43.70
2023-05-17T12:03:57.336Z,42.70
2023-05-17T12:06:25.356Z,42.20
2023-05-17T12:08:52.400Z,42.00
2023-05-17T12:11:19.469Z,43.50
2023-05-17T12:13:48.943Z,43.10
2023-05-17T12:16:21.111Z,43.40
2023-05-17T12:18:50.375Z,42.30
2023-05-17T12:21:19.162Z,41.90
2023-05-17T12:23:51.168Z,43.00
2023-05-17T12:26:20.035Z,43.10
2023-05-17T12:28:57.917Z,43.10
2023-05-17T12:31:47.351Z,41.50
2023-05-17T12:34:16.810Z,42.00
2023-05-17T12:36:44.633Z,42.70
2023-05-17T12:39:12.881Z,42.50
2023-05-17T12:41:40.778Z,41.60
2023-05-17T12:44:15.150Z,45.20
2023-05-17T12:46:43.982Z,42.30
2023-05-17T12:49:12.193Z,41.80
2023-05-17T12:51:46.600Z,41.30
2023-05-17T12:54:24.983Z,44.40
2023-05-17T12:56:52.280Z,41.10
2023-05-17T12:59:25.385Z,42.00
2023-05-17T13:01:57.364Z,42.20
2023-05-17T13:04:32.833Z,41.40
2023-05-17T13:07:02.361Z,40.30
2023-05-17T13:09:31.264Z,42.20
2023-05-17T13:11:59.230Z,41.90
2023-05-17T13:14:46.176Z,43.00
2023-05-17T13:17:22.949Z,43.20
2023-05-17T13:19:50.169Z,40.80
2023-05-17T13:22:17.422Z,41.70
2023-05-17T13:24:45.288Z,40.40
2023-05-17T13:27:12.624Z,41.50
2023-05-17T13:29:42.036Z,41.40
2023-05-17T13:32:11.673Z,41.00
2023-05-17T13:34:40.575Z,41.10
2023-05-17T13:37:11.645Z,41.40
2023-05-17T13:39:40.481Z,43.10
2023-05-17T13:42:07.657Z,44.50
2023-05-17T13:44:34.726Z,41.60
2023-05-17T13:47:01.986Z,41.20
2023-05-17T13:49:29.493Z,40.90
2023-05-17T13:51:57.780Z,43.30
2023-05-17T13:54:24.899Z,42.30
2023-05-17T13:56:54.977Z,42.30
2023-05-17T13:59:22.080Z,43.30
2023-05-17T14:01:49.603Z,40.90
2023-05-17T14:04:17.073Z,40.60
2023-05-17T14:06:45.328Z,40.10
2023-05-17T14:09:13.565Z,40.00
2023-05-17T14:11:40.891Z,40.20
2023-05-17T14:14:07.942Z,40.40
2023-05-17T14:16:35.027Z,40.70
2023-05-17T14:19:04.777Z,41.20
2023-05-17T14:21:33.564Z,41.70
2023-05-17T14:24:00.595Z,41.20
2023-05-17T14:26:27.704Z,41.50
2023-05-17T14:28:54.671Z,40.90
2023-05-17T14:31:21.679Z,41.50
2023-05-17T14:33:48.806Z,41.60
2023-05-17T14:36:15.981Z,41.10
2023-05-17T14:38:42.955Z,42.30
2023-05-17T14:41:10.017Z,40.80
2023-05-17T14:43:37.067Z,41.20
2023-05-17T14:46:04.485Z,40.50
2023-05-17T14:48:31.767Z,40.40
2023-05-17T14:50:58.939Z,40.50
2023-05-17T14:53:29.425Z,40.20
2023-05-17T14:55:59.741Z,40.10
2023-05-17T14:58:27.156Z,40.10
2023-05-17T15:01:05.713Z,40.10
2023-05-17T15:03:35.029Z,40.20
2023-05-17T15:06:05.405Z,40.00
2023-05-17T15:08:34.617Z,39.80
2023-05-17T15:11:02.093Z,40.60
2023-05-17T15:13:29.122Z,41.20
2023-05-17T15:15:56.353Z,40.40
2023-05-17T15:18:24.094Z,40.00
2023-05-17T15:20:51.122Z,41.00
2023-05-17T15:23:18.295Z,41.90
2023-05-17T15:25:45.558Z,46.00
2023-05-17T15:28:12.523Z,49.20
2023-05-17T15:30:41.358Z,44.00
2023-05-17T15:33:09.406Z,41.60
2023-05-17T15:35:37.200Z,41.30
2023-05-17T15:38:07.899Z,41.10
2023-05-17T15:40:35.115Z,41.00
2023-05-17T15:43:02.205Z,41.90
2023-05-17T15:45:29.605Z,42.50
2023-05-17T15:47:57.347Z,41.20
2023-05-17T15:50:24.502Z,41.10
2023-05-17T15:52:51.562Z,41.40
2023-05-17T15:55:18.936Z,41.00
2023-05-17T15:57:46.682Z,41.30
2023-05-17T16:00:14.207Z,41.60
2023-05-17T16:02:41.445Z,41.20
2023-05-17T16:05:08.991Z,40.90
2023-05-17T16:07:36.402Z,41.50
2023-05-17T16:10:04.223Z,41.20
2023-05-17T16:12:31.731Z,41.00
2023-05-17T16:14:58.905Z,41.30
2023-05-17T16:17:26.890Z,41.00
2023-05-17T16:19:54.093Z,41.20
2023-05-17T16:22:21.634Z,41.40
2023-05-17T16:24:53.785Z,41.30
2023-05-17T16:27:21.962Z,41.20
2023-05-17T16:29:49.100Z,41.00
2023-05-17T16:32:16.326Z,43.00
2023-05-17T16:34:43.454Z,41.10
2023-05-17T16:37:11.173Z,41.10
2023-05-17T16:39:38.268Z,40.30
2023-05-17T16:42:06.021Z,40.90
2023-05-17T16:44:33.083Z,41.10
2023-05-17T16:47:00.725Z,41.20
2023-05-17T16:49:27.824Z,41.50
2023-05-17T16:51:54.932Z,41.80
2023-05-17T16:54:21.988Z,41.10
2023-05-17T16:56:49.235Z,41.50
2023-05-17T16:59:16.481Z,41.60
2023-05-17T17:01:43.537Z,41.30
2023-05-17T17:04:10.634Z,41.80
2023-05-17T17:06:38.184Z,41.30
2023-05-17T17:09:08.307Z,41.30
2023-05-17T17:11:35.818Z,41.40
2023-05-17T17:14:02.801Z,40.70
2023-05-17T17:16:31.265Z,41.60
2023-05-17T17:18:58.986Z,41.40
2023-05-17T17:21:26.254Z,41.60
2023-05-17T17:23:53.615Z,41.20
2023-05-17T17:26:21.088Z,41.40
2023-05-17T17:28:48.230Z,41.70
2023-05-17T17:31:15.406Z,42.30
2023-05-17T17:33:42.403Z,42.30
2023-05-17T17:36:11.276Z,42.50
2023-05-17T17:38:38.333Z,43.00
2023-05-17T17:41:05.624Z,42.60
2023-05-17T17:43:32.689Z,42.10
2023-05-17T17:45:59.796Z,42.60
2023-05-17T17:48:26.787Z,42.50
2023-05-17T17:50:53.906Z,43.00
2023-05-17T17:53:23.551Z,42.40
2023-05-17T17:55:50.703Z,43.10
2023-05-17T17:58:17.708Z,42.40
2023-05-17T18:00:44.674Z,43.60
2023-05-17T18:03:12.943Z,42.30
2023-05-17T18:05:40.266Z,42.10
2023-05-17T18:08:07.371Z,42.80
2023-05-17T18:10:34.935Z,42.80
2023-05-17T18:13:01.922Z,42.90
2023-05-17T18:15:28.943Z,42.80
2023-05-17T18:17:57.017Z,43.00
2023-05-17T18:20:26.249Z,42.40
2023-05-17T18:22:53.512Z,42.30
2023-05-17T18:25:21.244Z,42.30
2023-05-17T18:27:48.247Z,42.50
2023-05-17T18:30:15.478Z,42.70
2023-05-17T18:32:42.793Z,42.60
2023-05-17T18:35:10.287Z,43.60
2023-05-17T18:37:37.284Z,42.70
2023-05-17T18:40:04.899Z,44.10
2023-05-17T18:42:32.189Z,43.30
2023-05-17T18:45:01.043Z,42.80
2023-05-17T18:47:28.241Z,43.20
2023-05-17T18:49:55.658Z,43.20
2023-05-17T18:52:22.704Z,43.80
2023-05-17T18:54:50.307Z,44.30
2023-05-17T18:57:17.520Z,43.10
2023-05-17T18:59:44.964Z,43.00
2023-05-17T19:02:12.172Z,46.10
2023-05-17T19:04:39.523Z,43.00
2023-05-17T19:07:06.823Z,42.90
2023-05-17T19:09:34.552Z,42.90
2023-05-17T19:12:01.979Z,43.40
2023-05-17T19:14:29.162Z,43.40
2023-05-17T19:16:56.975Z,43.30
2023-05-17T19:19:25.177Z,43.70
2023-05-17T19:21:52.379Z,44.10
2023-05-17T19:24:19.465Z,44.70
2023-05-17T19:26:46.471Z,44.40
2023-05-17T19:29:13.612Z,44.30
2023-05-17T19:31:41.092Z,45.40
2023-05-17T19:34:08.214Z,46.20
2023-05-17T19:36:35.484Z,47.10
2023-05-17T19:39:02.575Z,47.20
2023-05-17T19:41:29.795Z,47.50
2023-05-17T19:43:56.833Z,48.20
2023-05-17T19:46:24.460Z,48.40
2023-05-17T19:48:52.867Z,48.60
2023-05-17T19:51:19.905Z,49.20
2023-05-17T19:53:53.032Z,49.00
2023-05-17T19:56:21.455Z,49.40
2023-05-17T19:58:48.506Z,49.30
2023-05-17T20:01:15.556Z,49.70
2023-05-17T20:03:42.738Z,50.70
2023-05-17T20:06:14.140Z,50.60
2023-05-17T20:08:42.435Z,50.90
2023-05-17T20:11:09.736Z,51.10
2023-05-17T20:13:40.420Z,51.00
2023-05-17T20:16:14.841Z,51.20
2023-05-17T20:18:45.650Z,51.70
2023-05-17T20:21:19.761Z,51.50
2023-05-17T20:23:47.368Z,52.80
2023-05-17T20:26:19.029Z,52.50
2023-05-17T20:28:46.619Z,52.50
2023-05-17T20:31:13.907Z,52.10
2023-05-17T20:33:41.095Z,52.00
2023-05-17T20:36:10.991Z,51.70
2023-05-17T20:38:38.548Z,51.70
2023-05-17T20:41:07.501Z,51.70
2023-05-17T20:43:35.114Z,51.80
2023-05-17T20:46:06.890Z,51.10
2023-05-17T20:48:34.331Z,51.40
2023-05-17T20:51:02.217Z,51.40
2023-05-17T20:53:32.477Z,51.60
2023-05-17T20:55:59.632Z,51.50
2023-05-17T20:58:29.086Z,51.60
2023-05-17T21:00:57.140Z,50.60
2023-05-17T21:03:28.033Z,50.90
2023-05-17T21:05:55.866Z,50.90
2023-05-17T21:08:23.279Z,51.00
2023-05-17T21:10:50.345Z,51.90
2023-05-17T21:13:17.540Z,51.20
2023-05-17T21:15:44.999Z,51.00
2023-05-17T21:18:12.667Z,51.10
2023-05-17T21:20:39.782Z,51.40
2023-05-17T21:23:06.810Z,52.10
2023-05-17T21:25:35.058Z,51.60
2023-05-17T21:28:02.074Z,52.00
2023-05-17T21:30:29.591Z,51.40
2023-05-17T21:32:56.804Z,50.80
2023-05-17T21:35:23.927Z,51.10
2023-05-17T21:37:51.013Z,51.50
2023-05-17T21:40:18.016Z,53.40
2023-05-17T21:42:45.025Z,52.90
2023-05-17T21:45:12.951Z,51.90
2023-05-17T21:47:40.179Z,52.40
2023-05-17T21:50:07.497Z,52.50
2023-05-17T21:52:34.805Z,52.20
2023-05-17T21:55:01.881Z,53.30
2023-05-17T21:57:28.825Z,52.90
2023-05-17T21:59:56.061Z,52.60
2023-05-17T22:02:23.111Z,52.70
2023-05-17T22:04:50.118Z,52.50
2023-05-17T22:07:17.120Z,53.10
2023-05-17T22:09:45.566Z,53.10
2023-05-17T22:12:13.013Z,53.20
2023-05-17T22:14:44.514Z,53.10
2023-05-17T22:17:11.587Z,52.50
2023-05-17T22:19:40.388Z,51.10
2023-05-17T22:22:09.137Z,53.60
2023-05-17T22:24:36.384Z,52.80
2023-05-17T22:27:04.134Z,54.20
2023-05-17T22:29:31.078Z,52.60
2023-05-17T22:31:58.097Z,51.70
2023-05-17T22:34:25.171Z,52.20
2023-05-17T22:36:52.162Z,50.20
2023-05-17T22:39:19.379Z,53.10
2023-05-17T22:41:46.333Z,53.00
2023-05-17T22:44:13.339Z,51.90
2023-05-17T22:46:42.150Z,52.40
2023-05-17T22:49:09.459Z,52.00
2023-05-17T22:51:36.870Z,51.50
2023-05-17T22:54:04.001Z,52.30
2023-05-17T22:56:31.257Z,52.70
2023-05-17T22:58:58.714Z,52.60
2023-05-17T23:01:25.842Z,52.60
2023-05-17T23:03:52.889Z,53.40
2023-05-17T23:06:22.111Z,52.30
2023-05-17T23:08:49.844Z,53.30
2023-05-17T23:11:18.083Z,53.10
2023-05-17T23:13:45.208Z,52.30
2023-05-17T23:16:14.079Z,52.70
2023-05-17T23:18:41.368Z,54.30
2023-05-17T23:21:09.507Z,52.80
2023-05-17T23:23:38.183Z,54.10
2023-05-17T23:26:06.019Z,52.50
2023-05-17T23:28:33.065Z,52.30
2023-05-17T23:31:02.056Z,52.80
2023-05-17T23:33:32.101Z,52.00
2023-05-17T23:35:59.342Z,54.30
2023-05-17T23:38:26.664Z,53.70
2023-05-17T23:40:54.258Z,53.20
2023-05-17T23:43:21.356Z,53.50
2023-05-17T23:45:48.391Z,53.40
2023-05-17T23:48:16.155Z,50.80
2023-05-17T23:50:43.278Z,52.20
2023-05-17T23:53:10.502Z,53.50
2023-05-17T23:55:38.614Z,51.90
2023-05-17T23:58:06.017Z,54.70
